Time;durP1;ratioP1;P1;durP2;ratioP2;P2;SDS_P1;SDS_P2;PMS_P1;PMS_P2;Temp;Humidity;BMP_temperature;BMP_pressure;BME280_temperature;BME280_humidity;BME280_pressure;Samples;Min_cycle;Max_cycle;Signal;HPM_P1;HPM_P2
2023/09/28 00:02:58;;;;;;;10.82;8.90;;;17.80;99.90;;;;;;5098903;28;20090;-82
2023/09/28 00:05:23;;;;;;;10.68;9.10;;;17.80;99.90;;;;;;5101181;28;20050;-83
2023/09/28 00:07:52;;;;;;;8.93;8.13;;;17.80;99.90;;;;;;5096809;28;20043;-83
2023/09/28 00:10:18;;;;;;;10.35;9.10;;;17.80;99.90;;;;;;5089607;28;20147;-82
2023/09/28 00:12:49;;;;;;;8.80;7.93;;;18.00;99.90;;;;;;5111715;28;20546;-82
2023/09/28 00:15:15;;;;;;;10.52;9.30;;;17.80;99.90;;;;;;5109610;28;20078;-82
2023/09/28 00:17:42;;;;;;;9.77;8.88;;;17.80;99.90;;;;;;5104732;28;20138;-83
2023/09/28 00:20:13;;;;;;;10.15;9.15;;;17.80;99.90;;;;;;5097305;28;20044;-82
2023/09/28 00:22:46;;;;;;;9.77;8.77;;;17.70;99.90;;;;;;5104458;28;20043;-83
2023/09/28 00:25:12;;;;;;;10.40;9.23;;;17.70;99.90;;;;;;5106244;28;20040;-83
2023/09/28 00:27:39;;;;;;;10.35;8.90;;;17.70;99.90;;;;;;5077346;28;20059;-83
2023/09/28 00:30:18;;;;;;;9.52;8.63;;;17.70;99.90;;;;;;5108846;28;20088;-82
2023/09/28 00:32:44;;;;;;;9.85;8.85;;;17.70;99.90;;;;;;5099147;28;20044;-82
2023/09/28 00:35:10;;;;;;;10.60;9.57;;;17.70;99.90;;;;;;5101663;28;20445;-82
2023/09/28 00:37:36;;;;;;;10.65;9.65;;;18.20;99.90;;;;;;5109919;27;20096;-82
2023/09/28 00:40:15;;;;;;;10.90;9.80;;;17.70;99.90;;;;;;5084581;28;20048;-83
2023/09/28 00:42:41;;;;;;;8.73;7.95;;;17.70;99.90;;;;;;5111384;28;20056;-83
2023/09/28 00:45:07;;;;;;;9.70;8.80;;;17.50;99.90;;;;;;5111317;27;20036;-82
2023/09/28 00:47:35;;;;;;;9.90;9.00;;;17.70;99.90;;;;;;5112807;27;20058;-82
2023/09/28 00:50:03;;;;;;;9.73;8.70;;;17.70;99.90;;;;;;5092151;28;20055;-83
2023/09/28 00:52:30;;;;;;;9.13;8.23;;;17.70;99.90;;;;;;5110079;27;20055;-82
2023/09/28 00:54:56;;;;;;;8.90;8.07;;;17.70;99.90;;;;;;5130087;27;20057;-82
2023/09/28 00:57:22;;;;;;;9.65;8.65;;;17.70;99.90;;;;;;5110545;27;20054;-83
2023/09/28 00:59:48;;;;;;;9.68;8.77;;;18.30;99.90;;;;;;5094820;28;20468;-83
2023/09/28 01:02:14;;;;;;;8.93;8.02;;;17.70;99.90;;;;;;5101871;27;20075;-83
2023/09/28 01:04:41;;;;;;;9.13;8.18;;;17.70;99.90;;;;;;5129735;27;20043;-82
2023/09/28 01:07:07;;;;;;;8.13;7.43;;;17.80;99.90;;;;;;5112470;27;20055;-83
2023/09/28 01:09:32;;;;;;;7.90;7.10;;;17.60;99.90;;;;;;5076846;28;20047;-83
2023/09/28 01:11:59;;;;;;;9.27;7.60;;;17.70;99.90;;;;;;5092022;28;20493;-82
2023/09/28 01:14:24;;;;;;;9.48;8.48;;;17.60;99.90;;;;;;5092395;28;20047;-83
2023/09/28 01:16:50;;;;;;;8.25;7.18;;;17.60;99.90;;;;;;5125889;27;20047;-83
2023/09/28 01:19:16;;;;;;;8.13;7.28;;;17.60;99.90;;;;;;5113152;27;20066;-83
2023/09/28 01:21:43;;;;;;;8.60;7.78;;;17.90;99.90;;;;;;5111059;27;20047;-83
2023/09/28 01:24:08;;;;;;;8.30;7.30;;;17.60;99.90;;;;;;5081409;28;20047;-82
2023/09/28 01:26:34;;;;;;;8.45;7.50;;;17.60;99.90;;;;;;5120101;27;20054;-83
2023/09/28 01:29:00;;;;;;;7.93;7.22;;;17.50;99.90;;;;;;5126328;27;20106;-83
2023/09/28 01:31:27;;;;;;;7.45;6.75;;;17.60;99.90;;;;;;5119760;27;20051;-83
2023/09/28 01:33:53;;;;;;;8.63;7.68;;;17.60;99.90;;;;;;5107181;28;20071;-82
2023/09/28 01:36:19;;;;;;;8.02;7.22;;;17.60;99.90;;;;;;5099036;27;20057;-83
2023/09/28 01:39:02;;;;;;;9.70;7.65;;;17.70;99.90;;;;;;5128726;27;20055;-83
2023/09/28 01:41:27;;;;;;;8.15;7.13;;;17.60;99.90;;;;;;5121472;27;20516;-83
2023/09/28 01:43:53;;;;;;;8.48;7.60;;;17.60;99.90;;;;;;5112855;27;20039;-82
2023/09/28 01:46:18;;;;;;;7.72;7.03;;;17.60;99.90;;;;;;5104380;27;20050;-83
2023/09/28 01:48:44;;;;;;;8.60;7.55;;;17.50;99.90;;;;;;5116357;27;20509;-82
2023/09/28 01:51:10;;;;;;;7.75;7.15;;;17.60;99.90;;;;;;5092437;27;20622;-83
2023/09/28 01:53:35;;;;;;;9.20;7.70;;;17.40;99.90;;;;;;5110468;27;20189;-82
2023/09/28 01:56:02;;;;;;;9.55;8.30;;;17.40;99.90;;;;;;5090117;28;20469;-83
2023/09/28 01:58:29;;;;;;;8.27;7.47;;;17.40;99.90;;;;;;5108951;28;20086;-82
2023/09/28 02:00:55;;;;;;;8.95;8.02;;;17.40;99.90;;;;;;5100726;28;20054;-83
2023/09/28 02:03:22;;;;;;;8.48;7.47;;;17.40;99.90;;;;;;5090563;28;20043;-83
2023/09/28 02:05:49;;;;;;;8.15;7.35;;;17.30;99.90;;;;;;5109102;27;20082;-83
2023/09/28 02:08:15;;;;;;;8.73;7.82;;;17.30;99.90;;;;;;5090443;28;20542;-82
2023/09/28 02:10:41;;;;;;;8.23;7.40;;;17.20;99.90;;;;;;5094329;27;20043;-83
2023/09/28 02:13:07;;;;;;;8.05;7.35;;;17.60;99.90;;;;;;5128408;27;20114;-83
2023/09/28 02:15:33;;;;;;;8.40;7.60;;;17.20;99.90;;;;;;5128252;27;20134;-83
2023/09/28 02:17:59;;;;;;;7.80;7.10;;;17.00;99.90;;;;;;5093677;28;20088;-83
2023/09/28 02:20:24;;;;;;;9.02;7.47;;;16.50;99.90;;;;;;5111637;27;20051;-83
2023/09/28 02:22:52;;;;;;;9.82;8.25;;;17.10;99.90;;;;;;5100127;27;20039;-83
2023/09/28 02:25:20;;;;;;;8.57;7.78;;;16.90;99.90;;;;;;5087128;28;20159;-83
2023/09/28 02:27:47;;;;;;;9.05;8.15;;;16.80;99.90;;;;;;5119582;27;20126;-82
2023/09/28 02:30:15;;;;;;;8.50;7.68;;;16.90;99.90;;;;;;5098356;27;20138;-83
2023/09/28 02:32:44;;;;;;;8.27;7.35;;;16.70;99.90;;;;;;5127392;27;20047;-83
2023/09/28 02:35:13;;;;;;;8.35;7.53;;;16.70;99.90;;;;;;5085704;28;20049;-82
2023/09/28 02:37:39;;;;;;;8.45;7.43;;;16.60;99.90;;;;;;5099655;27;20039;-83
2023/09/28 02:40:05;;;;;;;9.05;7.78;;;17.40;99.90;;;;;;5098072;27;20123;-83
2023/09/28 02:42:32;;;;;;;7.97;7.18;;;16.50;99.90;;;;;;5119390;27;20043;-83
2023/09/28 02:44:58;;;;;;;9.32;6.78;;;16.50;99.90;;;;;;5109223;27;20051;-83
2023/09/28 02:47:24;;;;;;;7.47;6.47;;;17.10;99.90;;;;;;5107949;27;20061;-83
2023/09/28 02:49:51;;;;;;;8.40;7.43;;;16.40;99.90;;;;;;5127303;27;20420;-83
2023/09/28 02:52:17;;;;;;;8.15;7.30;;;17.00;99.90;;;;;;5097593;28;20511;-83
2023/09/28 02:54:43;;;;;;;7.72;7.03;;;16.40;99.90;;;;;;5089587;28;20075;-83
2023/09/28 02:57:09;;;;;;;7.95;7.10;;;16.40;99.90;;;;;;5107989;27;20397;-83
2023/09/28 02:59:35;;;;;;;9.30;6.88;;;16.40;99.90;;;;;;5107513;27;20047;-82
2023/09/28 03:02:01;;;;;;;7.85;7.05;;;16.70;99.90;;;;;;5095953;28;20051;-83
2023/09/28 03:04:26;;;;;;;7.80;6.95;;;16.30;99.90;;;;;;5089574;28;20633;-83
2023/09/28 03:06:52;;;;;;;8.15;7.45;;;16.20;99.90;;;;;;5100343;27;20089;-83
2023/09/28 03:09:19;;;;;;;8.68;7.55;;;16.20;99.90;;;;;;5128280;27;20742;-84
2023/09/28 03:11:45;;;;;;;9.75;6.70;;;16.20;99.90;;;;;;5108069;27;20401;-83
2023/09/28 03:14:11;;;;;;;7.82;6.68;;;16.30;99.90;;;;;;5095658;27;20104;-83
2023/09/28 03:16:37;;;;;;;8.23;6.63;;;16.30;99.90;;;;;;5107803;27;20035;-82
2023/09/28 03:19:03;;;;;;;8.45;6.75;;;16.50;99.90;;;;;;5125499;27;20051;-84
2023/09/28 03:21:29;;;;;;;7.57;6.85;;;16.30;99.90;;;;;;5100792;28;20054;-83
2023/09/28 03:24:01;;;;;;;10.32;6.78;;;16.30;99.90;;;;;;5076327;28;20058;-83
2023/09/28 03:26:31;;;;;;;7.63;6.90;;;16.30;99.90;;;;;;5072114;28;20062;-83
2023/09/28 03:28:57;;;;;;;7.53;6.72;;;16.30;99.90;;;;;;5099379;28;20497;-82
2023/09/28 03:31:27;;;;;;;7.22;6.10;;;16.40;99.90;;;;;;5106890;27;20039;-83
2023/09/28 03:33:54;;;;;;;7.97;7.03;;;16.30;99.90;;;;;;5071968;28;20047;-84
2023/09/28 03:36:19;;;;;;;8.18;6.90;;;17.10;99.90;;;;;;5081592;28;20051;-83
2023/09/28 03:38:46;;;;;;;7.63;6.70;;;16.90;99.90;;;;;;5095444;28;20059;-82
2023/09/28 03:41:12;;;;;;;7.93;6.97;;;16.30;99.90;;;;;;5113597;28;20046;-82
2023/09/28 03:43:38;;;;;;;7.25;6.50;;;16.30;99.90;;;;;;5089118;28;20679;-83
2023/09/28 03:46:04;;;;;;;7.72;6.90;;;16.60;99.90;;;;;;5093460;28;20142;-83
2023/09/28 03:48:30;;;;;;;7.82;7.13;;;16.30;99.90;;;;;;5111265;27;20482;-83
2023/09/28 03:50:56;;;;;;;8.00;7.15;;;16.20;99.90;;;;;;5101047;28;20141;-83
2023/09/28 03:53:22;;;;;;;9.25;6.93;;;16.10;99.90;;;;;;5075663;27;20052;-83
2023/09/28 03:55:49;;;;;;;8.68;7.40;;;16.10;99.90;;;;;;5128677;27;20054;-83
2023/09/28 03:58:15;;;;;;;8.93;7.10;;;16.50;99.90;;;;;;5122694;27;20118;-82
2023/09/28 04:00:41;;;;;;;7.88;7.18;;;16.20;99.90;;;;;;5112366;27;20051;-83
2023/09/28 04:03:07;;;;;;;8.38;7.20;;;16.00;99.90;;;;;;5131033;27;20116;-83
2023/09/28 04:05:33;;;;;;;8.55;7.75;;;15.90;99.90;;;;;;5093320;28;20649;-83
2023/09/28 04:07:59;;;;;;;8.73;7.93;;;15.90;99.90;;;;;;5092661;28;20047;-83
2023/09/28 04:10:24;;;;;;;10.75;8.18;;;15.80;99.90;;;;;;5091351;27;20047;-83
2023/09/28 04:12:52;;;;;;;8.55;7.65;;;15.80;99.90;;;;;;5097959;28;20059;-83
2023/09/28 04:15:17;;;;;;;8.20;7.40;;;15.70;99.90;;;;;;5092828;28;20395;-82
2023/09/28 04:17:43;;;;;;;8.52;7.72;;;15.70;99.90;;;;;;5103750;27;20076;-82
2023/09/28 04:20:09;;;;;;;8.32;7.55;;;15.60;99.90;;;;;;5096516;27;20055;-83
2023/09/28 04:22:35;;;;;;;8.85;7.90;;;15.60;99.90;;;;;;5100821;28;20568;-82
2023/09/28 04:25:03;;;;;;;9.98;8.27;;;15.60;99.90;;;;;;5118480;27;20055;-82
2023/09/28 04:27:29;;;;;;;8.32;7.53;;;15.50;99.90;;;;;;5094257;27;20039;-82
2023/09/28 04:29:55;;;;;;;8.77;7.13;;;15.50;99.90;;;;;;5115625;27;20421;-82
2023/09/28 04:32:20;;;;;;;8.52;7.72;;;15.50;99.90;;;;;;5111274;27;20043;-82
2023/09/28 04:34:47;;;;;;;8.48;7.53;;;15.50;99.90;;;;;;5100191;28;20061;-83
2023/09/28 04:37:12;;;;;;;8.70;7.85;;;15.50;99.90;;;;;;5126281;27;20614;-83
2023/09/28 04:39:38;;;;;;;9.65;7.90;;;15.40;99.90;;;;;;5109903;28;20055;-82
2023/09/28 04:42:04;;;;;;;10.07;7.65;;;15.40;99.90;;;;;;5092170;27;20056;-83
2023/09/28 04:44:30;;;;;;;9.32;7.80;;;15.40;99.90;;;;;;5099367;28;20104;-83
2023/09/28 04:46:56;;;;;;;9.02;8.13;;;15.40;99.90;;;;;;5095931;27;20474;-83
2023/09/28 04:49:21;;;;;;;10.68;8.15;;;15.50;99.90;;;;;;5110446;27;20462;-82
2023/09/28 04:51:47;;;;;;;13.80;8.18;;;15.40;99.90;;;;;;5110050;27;20035;-83
2023/09/28 04:54:14;;;;;;;9.55;7.82;;;15.40;99.90;;;;;;5130361;27;20047;-83
2023/09/28 04:56:40;;;;;;;8.68;7.75;;;15.40;99.90;;;;;;5098683;27;20074;-83
2023/09/28 04:59:06;;;;;;;9.35;8.38;;;15.40;99.90;;;;;;5118332;27;20088;-83
2023/09/28 05:01:32;;;;;;;10.27;8.10;;;15.50;99.90;;;;;;5090975;28;20062;-82
2023/09/28 05:03:59;;;;;;;8.95;7.85;;;15.40;99.90;;;;;;5110655;27;20074;-83
2023/09/28 05:06:24;;;;;;;8.52;7.60;;;15.30;99.90;;;;;;5127421;27;20467;-83
2023/09/28 05:08:50;;;;;;;9.68;8.13;;;15.30;99.90;;;;;;5090934;28;20044;-82
2023/09/28 05:11:15;;;;;;;9.10;7.75;;;15.30;99.90;;;;;;5092370;28;20512;-83
2023/09/28 05:13:42;;;;;;;8.85;7.97;;;15.30;99.90;;;;;;5092499;27;20103;-83
2023/09/28 05:16:07;;;;;;;12.07;8.65;;;16.10;99.90;;;;;;5107807;27;20088;-82
2023/09/28 05:18:34;;;;;;;8.85;8.02;;;15.30;99.90;;;;;;5102929;28;20039;-83
2023/09/28 05:21:00;;;;;;;11.93;8.07;;;15.30;99.90;;;;;;5074776;28;20094;-82
2023/09/28 05:23:26;;;;;;;9.07;8.07;;;15.30;99.90;;;;;;5092730;27;20519;-83
2023/09/28 05:25:51;;;;;;;9.52;8.18;;;15.40;99.90;;;;;;5100308;27;20066;-84
2023/09/28 05:28:17;;;;;;;9.20;8.23;;;15.30;99.90;;;;;;5094093;27;20047;-83
2023/09/28 05:30:43;;;;;;;9.18;7.45;;;15.30;99.90;;;;;;5104432;27;20058;-83
2023/09/28 05:33:08;;;;;;;11.07;8.05;;;15.30;99.90;;;;;;5129527;27;20078;-82
2023/09/28 05:35:34;;;;;;;9.98;7.97;;;16.00;99.90;;;;;;5080827;27;20035;-83
2023/09/28 05:37:59;;;;;;;9.73;8.25;;;15.30;99.90;;;;;;5105214;27;20052;-83
2023/09/28 05:40:25;;;;;;;13.38;8.48;;;15.30;99.90;;;;;;5109570;27;20050;-82
2023/09/28 05:42:51;;;;;;;9.30;7.82;;;15.40;99.90;;;;;;5104739;27;20043;-82
2023/09/28 05:45:17;;;;;;;10.00;7.45;;;15.20;99.90;;;;;;5091675;28;20082;-83
2023/09/28 05:47:43;;;;;;;12.45;7.15;;;15.40;99.90;;;;;;5091761;28;20058;-82
2023/09/28 05:50:08;;;;;;;9.27;7.43;;;15.40;99.90;;;;;;5091170;28;20092;-82
2023/09/28 05:52:34;;;;;;;9.60;6.80;;;15.40;99.90;;;;;;5109384;28;20047;-83
2023/09/28 05:55:00;;;;;;;9.85;7.03;;;15.40;99.90;;;;;;5091311;28;20253;-83
2023/09/28 05:57:26;;;;;;;8.70;6.63;;;15.50;99.90;;;;;;5109143;28;20406;-82
2023/09/28 05:59:51;;;;;;;9.50;6.35;;;15.50;99.90;;;;;;5089710;28;20075;-83
2023/09/28 06:02:19;;;;;;;9.27;6.40;;;15.80;99.90;;;;;;5107865;28;20048;-82
2023/09/28 06:04:45;;;;;;;10.75;6.15;;;15.60;99.90;;;;;;5081552;28;20704;-84
2023/09/28 06:07:10;;;;;;;10.85;6.47;;;15.90;99.90;;;;;;5090761;28;20490;-83
2023/09/28 06:09:40;;;;;;;11.25;6.32;;;15.70;99.90;;;;;;5096503;27;20035;-82
2023/09/28 06:12:06;;;;;;;10.02;6.00;;;15.70;99.90;;;;;;5128708;27;20446;-84
2023/09/28 06:14:33;;;;;;;8.10;5.57;;;15.70;99.90;;;;;;5105622;28;20039;-82
2023/09/28 06:16:59;;;;;;;9.32;5.47;;;15.80;99.90;;;;;;5084195;27;20050;-82
2023/09/28 06:19:25;;;;;;;12.98;5.78;;;15.80;99.90;;;;;;5110902;27;20169;-81
2023/09/28 06:21:51;;;;;;;11.05;5.90;;;15.80;99.90;;;;;;5129271;27;20815;-82
2023/09/28 06:24:18;;;;;;;9.77;5.68;;;15.80;99.90;;;;;;5111027;27;20122;-82
2023/09/28 06:26:44;;;;;;;11.18;5.65;;;15.90;99.90;;;;;;5110276;27;20538;-82
2023/09/28 06:29:10;;;;;;;10.38;5.45;;;15.90;99.90;;;;;;5094196;27;20047;-82
2023/09/28 06:31:36;;;;;;;8.27;5.18;;;15.90;99.90;;;;;;5128042;27;20047;-83
2023/09/28 06:34:01;;;;;;;10.40;4.82;;;15.90;99.90;;;;;;5110709;27;20518;-83
2023/09/28 06:36:28;;;;;;;14.75;5.57;;;16.00;99.90;;;;;;5110711;27;20079;-83
2023/09/28 06:38:55;;;;;;;13.02;4.93;;;16.00;99.90;;;;;;5110661;27;20043;-82
2023/09/28 06:41:21;;;;;;;10.68;5.28;;;16.10;99.90;;;;;;5094605;27;20080;-82
2023/09/28 06:43:48;;;;;;;8.43;4.80;;;16.20;99.90;;;;;;5114057;27;20043;-79
2023/09/28 06:46:14;;;;;;;11.00;4.65;;;16.20;99.90;;;;;;5106450;28;20092;-82
2023/09/28 06:48:42;;;;;;;12.35;5.97;;;16.60;99.90;;;;;;5095841;28;20697;-82
2023/09/28 06:51:08;;;;;;;13.30;4.80;;;16.30;99.90;;;;;;5125396;27;20046;-81
2023/09/28 06:53:33;;;;;;;10.93;5.13;;;16.30;99.90;;;;;;5114321;27;20035;-80
2023/09/28 06:55:59;;;;;;;13.75;5.43;;;16.40;99.90;;;;;;5087677;28;20044;-81
2023/09/28 06:58:25;;;;;;;14.57;5.15;;;16.50;99.90;;;;;;5090436;28;20051;-80
2023/09/28 07:00:51;;;;;;;15.10;5.00;;;16.50;99.90;;;;;;5074105;28;20043;-81
2023/09/28 07:03:16;;;;;;;14.93;4.90;;;17.40;99.90;;;;;;5092282;28;20388;-81
2023/09/28 07:05:42;;;;;;;17.15;4.93;;;16.60;99.90;;;;;;5074339;28;20640;-82
2023/09/28 07:08:09;;;;;;;16.40;4.75;;;16.70;99.90;;;;;;5080290;27;20039;-81
2023/09/28 07:10:35;;;;;;;16.70;4.43;;;17.10;99.90;;;;;;5109493;27;20042;-81
2023/09/28 07:13:04;;;;;;;15.77;4.78;;;16.80;99.90;;;;;;5109918;27;20099;-81
2023/09/28 07:15:33;;;;;;;14.50;4.68;;;16.80;99.90;;;;;;5111221;28;20158;-81
2023/09/28 07:18:00;;;;;;;11.32;3.85;;;16.90;99.90;;;;;;5094938;27;20119;-81
2023/09/28 07:20:26;;;;;;;16.92;4.90;;;16.90;99.90;;;;;;5116455;27;20051;-83
2023/09/28 07:22:52;;;;;;;17.67;5.07;;;17.00;99.90;;;;;;5111442;27;20039;-84
2023/09/28 07:25:19;;;;;;;15.27;4.78;;;17.50;99.90;;;;;;5094260;27;20133;-83
2023/09/28 07:27:45;;;;;;;16.02;5.00;;;17.10;99.90;;;;;;5130795;27;20042;-84
2023/09/28 07:30:15;;;;;;;12.82;4.15;;;17.20;99.90;;;;;;5113823;27;20100;-83
2023/09/28 07:32:41;;;;;;;13.70;4.50;;;17.20;99.90;;;;;;5111882;28;20096;-84
2023/09/28 07:35:11;;;;;;;17.40;4.50;;;17.30;99.90;;;;;;5110983;28;20047;-84
2023/09/28 07:37:42;;;;;;;14.13;4.68;;;17.40;99.90;;;;;;5093448;28;20050;-83
2023/09/28 07:40:12;;;;;;;14.77;5.13;;;18.20;99.90;;;;;;5111671;28;20133;-84
2023/09/28 07:42:44;;;;;;;15.88;5.43;;;17.50;99.90;;;;;;5109608;28;20050;-83
2023/09/28 07:45:11;;;;;;;14.07;4.68;;;17.50;99.90;;;;;;5122718;28;20096;-83
2023/09/28 07:47:38;;;;;;;14.50;4.32;;;17.60;99.90;;;;;;5093084;28;20039;-83
2023/09/28 07:50:05;;;;;;;19.25;4.43;;;17.70;99.90;;;;;;5111042;28;20043;-82
2023/09/28 07:52:31;;;;;;;18.60;4.40;;;17.70;99.90;;;;;;5094784;28;20051;-82
2023/09/28 07:54:57;;;;;;;15.95;4.07;;;17.70;99.90;;;;;;5097786;28;20808;-82
2023/09/28 07:57:22;;;;;;;14.25;3.72;;;17.80;99.90;;;;;;5091795;28;20092;-83
2023/09/28 07:59:48;;;;;;;21.13;4.65;;;17.90;99.90;;;;;;5091175;28;20050;-82
2023/09/28 08:02:14;;;;;;;15.30;3.97;;;17.70;99.90;;;;;;5128171;28;20055;-83
2023/09/28 08:04:40;;;;;;;18.23;4.45;;;18.10;99.90;;;;;;5094823;28;20559;-82
2023/09/28 08:07:05;;;;;;;15.63;4.72;;;18.00;99.90;;;;;;5110380;28;20093;-82
2023/09/28 08:09:32;;;;;;;20.00;4.75;;;18.00;99.90;;;;;;5100251;28;20448;-83
2023/09/28 08:11:58;;;;;;;14.13;3.95;;;18.20;99.90;;;;;;5089270;28;20048;-82
2023/09/28 08:14:24;;;;;;;15.18;4.22;;;18.30;99.90;;;;;;5073077;28;20039;-82
2023/09/28 08:16:50;;;;;;;16.00;3.60;;;18.70;99.90;;;;;;5089334;28;20039;-82
2023/09/28 08:19:17;;;;;;;14.85;3.92;;;18.60;99.90;;;;;;5095583;28;20039;-83
2023/09/28 08:21:43;;;;;;;14.52;3.88;;;18.60;99.90;;;;;;5098417;28;20053;-81
2023/09/28 08:24:10;;;;;;;18.70;3.95;;;18.90;99.90;;;;;;5090494;28;20130;-83
2023/09/28 08:26:36;;;;;;;16.02;3.90;;;18.70;99.90;;;;;;5088972;28;20044;-82
2023/09/28 08:29:03;;;;;;;15.68;4.15;;;18.80;99.90;;;;;;5074541;28;20393;-83
2023/09/28 08:31:32;;;;;;;17.02;4.43;;;18.70;99.90;;;;;;5092346;28;20040;-82
2023/09/28 08:34:00;;;;;;;14.82;3.67;;;18.70;99.90;;;;;;5093788;28;20071;-83
2023/09/28 08:36:26;;;;;;;15.88;4.07;;;18.80;99.90;;;;;;5112334;27;20047;-82
2023/09/28 08:38:53;;;;;;;17.08;4.60;;;18.80;99.90;;;;;;5093633;28;20531;-83
2023/09/28 08:41:29;;;;;;;14.70;3.88;;;18.80;99.90;;;;;;5076540;28;20106;-82
2023/09/28 08:44:02;;;;;;;17.20;3.60;;;18.90;99.90;;;;;;5092283;28;20040;-82
2023/09/28 08:46:31;;;;;;;18.75;4.35;;;19.00;99.90;;;;;;5092149;28;20044;-82
2023/09/28 08:49:01;;;;;;;20.52;4.18;;;19.20;99.90;;;;;;5094142;28;20318;-82
2023/09/28 08:51:27;;;;;;;17.27;4.43;;;19.80;99.90;;;;;;5094787;28;20059;-82
2023/09/28 08:53:54;;;;;;;15.75;3.58;;;19.20;99.90;;;;;;5112033;28;20418;-82
2023/09/28 08:56:20;;;;;;;19.75;4.22;;;19.30;99.90;;;;;;5076412;28;20039;-82
2023/09/28 08:58:47;;;;;;;16.48;3.67;;;19.20;99.90;;;;;;5122457;27;20530;-83
2023/09/28 09:01:14;;;;;;;16.52;4.72;;;19.20;99.90;;;;;;5115610;27;20074;-83
2023/09/28 09:03:40;;;;;;;18.25;3.95;;;19.30;99.90;;;;;;5118496;27;20050;-81
2023/09/28 09:06:10;;;;;;;13.52;4.07;;;19.10;99.90;;;;;;5116225;27;20059;-82
2023/09/28 09:08:40;;;;;;;12.80;4.40;;;19.10;99.90;;;;;;5114961;27;20053;-81
2023/09/28 09:11:08;;;;;;;15.25;4.97;;;19.10;99.90;;;;;;5114329;27;20069;-81
2023/09/28 09:13:34;;;;;;;17.42;4.47;;;19.50;99.90;;;;;;5096454;27;20074;-82
2023/09/28 09:15:59;;;;;;;17.38;4.32;;;19.10;99.90;;;;;;5095789;27;20081;-83
2023/09/28 09:18:25;;;;;;;16.45;4.45;;;19.10;99.90;;;;;;5085192;27;20118;-83
2023/09/28 09:20:57;;;;;;;15.35;3.92;;;19.10;99.90;;;;;;5112290;27;20051;-82
2023/09/28 09:23:24;;;;;;;15.60;3.97;;;19.10;99.90;;;;;;5113364;27;20039;-82
2023/09/28 09:25:56;;;;;;;11.23;3.72;;;19.80;99.90;;;;;;5132527;27;20470;-82
2023/09/28 09:28:33;;;;;;;17.50;4.30;;;19.20;99.90;;;;;;5115015;27;20077;-82
2023/09/28 09:31:00;;;;;;;15.23;4.00;;;19.70;99.90;;;;;;5134697;27;20050;-83
2023/09/28 09:33:26;;;;;;;12.48;3.40;;;19.20;99.90;;;;;;5091459;28;20134;-81
2023/09/28 09:35:52;;;;;;;15.45;4.28;;;19.20;99.90;;;;;;5107505;28;20051;-82
2023/09/28 09:38:28;;;;;;;16.95;4.18;;;19.30;99.90;;;;;;5091307;28;20066;-82
2023/09/28 09:41:04;;;;;;;16.08;4.38;;;19.50;99.90;;;;;;5091027;28;20104;-82
2023/09/28 09:43:35;;;;;;;18.80;4.28;;;19.40;99.90;;;;;;5090995;28;20047;-83
2023/09/28 09:46:05;;;;;;;14.85;3.90;;;19.40;99.90;;;;;;5076431;28;20050;-82
2023/09/28 09:48:44;;;;;;;16.65;3.60;;;19.40;99.90;;;;;;5100843;28;20047;-83
2023/09/28 09:51:15;;;;;;;15.82;3.47;;;19.50;99.90;;;;;;5091208;28;20059;-81
2023/09/28 09:53:42;;;;;;;12.57;3.67;;;19.70;99.90;;;;;;5109723;28;20122;-82
2023/09/28 09:56:09;;;;;;;14.02;3.28;;;20.20;99.90;;;;;;5112135;28;20780;-84
2023/09/28 09:58:42;;;;;;;12.02;3.35;;;19.70;99.90;;;;;;5110956;28;20043;-84
2023/09/28 10:01:16;;;;;;;19.05;3.85;;;19.70;99.90;;;;;;5094260;27;20055;-84
2023/09/28 10:03:47;;;;;;;16.15;3.40;;;19.70;99.90;;;;;;5102007;28;20555;-82
2023/09/28 10:06:16;;;;;;;14.25;3.70;;;19.70;99.90;;;;;;5099295;27;20046;-83
2023/09/28 10:08:49;;;;;;;14.27;3.65;;;19.70;99.90;;;;;;5110960;27;20078;-83
2023/09/28 10:11:16;;;;;;;19.50;3.70;;;19.70;99.90;;;;;;5110649;27;20053;-82
2023/09/28 10:13:42;;;;;;;17.17;3.63;;;19.60;99.90;;;;;;5110150;27;20456;-82
2023/09/28 10:16:09;;;;;;;14.45;3.28;;;20.00;99.90;;;;;;5111135;27;20046;-82
2023/09/28 10:18:37;;;;;;;14.90;3.47;;;19.20;99.90;;;;;;5087565;27;20058;-82
2023/09/28 10:21:03;;;;;;;16.45;3.70;;;19.60;99.90;;;;;;5094435;27;20046;-83
2023/09/28 10:23:29;;;;;;;12.18;2.90;;;19.70;99.90;;;;;;5109212;27;20035;-82
2023/09/28 10:26:10;;;;;;;15.45;3.08;;;19.80;99.90;;;;;;5110037;27;20482;-82
2023/09/28 10:28:56;;;;;;;9.57;2.80;;;19.70;99.90;;;;;;5087278;28;20051;-82
2023/09/28 10:31:22;;;;;;;13.98;3.10;;;20.00;99.90;;;;;;5118276;27;20039;-81
2023/09/28 10:34:20;;;;;;;13.80;3.22;;;19.70;99.90;;;;;;5089389;27;20053;-81
2023/09/28 10:37:15;;;;;;;15.70;2.92;;;19.80;99.90;;;;;;5076140;27;20044;-82
2023/09/28 10:39:50;;;;;;;13.07;3.08;;;19.80;99.90;;;;;;5097261;28;20064;-82
2023/09/28 10:42:16;;;;;;;11.13;2.90;;;19.70;99.90;;;;;;5096938;27;20047;-81
2023/09/28 10:44:46;;;;;;;11.90;2.97;;;19.70;99.90;;;;;;5110808;27;20088;-80
2023/09/28 10:47:12;;;;;;;11.27;2.97;;;19.70;99.90;;;;;;5110543;27;20086;-80
2023/09/28 10:49:39;;;;;;;12.43;2.90;;;19.80;99.90;;;;;;5105114;27;20050;-81
2023/09/28 10:52:09;;;;;;;11.93;3.53;;;19.80;99.90;;;;;;5103948;27;20091;-81
2023/09/28 10:54:35;;;;;;;10.95;2.83;;;19.90;99.90;;;;;;5109477;27;20154;-82
2023/09/28 10:57:03;;;;;;;13.68;2.80;;;20.00;99.90;;;;;;5128376;27;20049;-80
2023/09/28 10:59:29;;;;;;;11.55;2.97;;;20.10;99.90;;;;;;5107875;27;20047;-82
2023/09/28 11:01:55;;;;;;;11.95;2.92;;;20.20;99.90;;;;;;5102461;27;20047;-81
2023/09/28 11:04:22;;;;;;;15.30;3.33;;;20.60;99.90;;;;;;5089395;28;20051;-80
2023/09/28 11:06:49;;;;;;;14.13;3.22;;;20.40;99.90;;;;;;5098186;27;20043;-81
2023/09/28 11:09:19;;;;;;;12.60;2.63;;;20.40;99.90;;;;;;5110092;27;20139;-81
2023/09/28 11:11:44;;;;;;;13.10;3.03;;;20.40;99.90;;;;;;5087630;27;20039;-80
2023/09/28 11:14:13;;;;;;;16.00;3.20;;;20.50;99.90;;;;;;5100793;27;20032;-80
2023/09/28 11:16:40;;;;;;;10.30;2.83;;;20.30;99.90;;;;;;5110408;27;20464;-80
2023/09/28 11:19:06;;;;;;;13.20;3.55;;;20.30;99.90;;;;;;5089589;28;20414;-80
2023/09/28 11:21:34;;;;;;;13.90;3.08;;;20.20;99.90;;;;;;5089245;28;20043;-80
2023/09/28 11:24:02;;;;;;;10.43;2.83;;;20.20;99.90;;;;;;5107843;28;20043;-82
2023/09/28 11:26:29;;;;;;;15.15;2.83;;;20.10;99.90;;;;;;5071516;28;20050;-81
2023/09/28 11:28:57;;;;;;;14.30;3.75;;;20.10;99.90;;;;;;5089525;28;20158;-81
2023/09/28 11:31:23;;;;;;;12.23;3.00;;;20.50;99.90;;;;;;5088507;28;20047;-81
2023/09/28 11:33:49;;;;;;;13.50;3.30;;;20.20;99.90;;;;;;5089337;28;20379;-82
2023/09/28 11:36:19;;;;;;;15.07;3.28;;;20.30;99.90;;;;;;5072087;28;20093;-82
2023/09/28 11:38:46;;;;;;;11.10;2.88;;;20.30;99.90;;;;;;5072000;28;20062;-82
2023/09/28 11:41:15;;;;;;;14.88;3.38;;;20.30;99.90;;;;;;5087497;28;20056;-81
2023/09/28 11:43:50;;;;;;;11.32;3.25;;;20.40;99.90;;;;;;5070624;28;20044;-81
2023/09/28 11:46:22;;;;;;;16.23;3.40;;;20.40;99.90;;;;;;5087979;28;20061;-81
2023/09/28 11:49:01;;;;;;;16.15;3.35;;;20.50;99.90;;;;;;5087379;28;20131;-82
2023/09/28 11:51:29;;;;;;;13.88;3.00;;;20.50;99.90;;;;;;5088369;28;20043;-82
2023/09/28 11:53:55;;;;;;;16.70;3.45;;;20.50;99.90;;;;;;5087469;28;20426;-82
2023/09/28 11:56:22;;;;;;;14.55;3.53;;;20.50;99.90;;;;;;5087676;28;20043;-81
2023/09/28 11:58:48;;;;;;;19.63;3.78;;;20.40;99.90;;;;;;5089540;28;20448;-82
2023/09/28 12:01:14;;;;;;;42.90;8.70;;;20.40;99.90;;;;;;5089145;28;20051;-82
2023/09/28 12:03:39;;;;;;;16.90;4.25;;;20.80;99.90;;;;;;5106798;28;20060;-82
2023/09/28 12:06:05;;;;;;;15.82;3.38;;;20.40;99.90;;;;;;5075440;28;20035;-81
2023/09/28 12:08:30;;;;;;;14.77;2.97;;;20.50;99.90;;;;;;5093226;28;20059;-81
2023/09/28 12:10:59;;;;;;;18.13;4.30;;;20.60;99.90;;;;;;5111129;27;20139;-82
2023/09/28 12:13:26;;;;;;;17.05;4.15;;;20.50;99.90;;;;;;5111724;27;20051;-81
2023/09/28 12:15:53;;;;;;;17.83;3.67;;;20.70;99.90;;;;;;5100187;27;20054;-81
2023/09/28 12:18:19;;;;;;;16.30;3.58;;;20.70;99.90;;;;;;5092159;28;20047;-81
2023/09/28 12:20:44;;;;;;;15.13;3.42;;;20.80;99.90;;;;;;5125572;27;20039;-81
2023/09/28 12:23:10;;;;;;;13.10;3.90;;;20.90;99.90;;;;;;5113408;27;20039;-82
2023/09/28 12:25:35;;;;;;;16.02;3.75;;;20.90;99.90;;;;;;5104950;28;20112;-81
2023/09/28 12:28:02;;;;;;;13.90;3.88;;;20.90;99.90;;;;;;5111357;28;20459;-81
2023/09/28 12:30:29;;;;;;;13.45;4.00;;;20.90;99.90;;;;;;5110723;28;20050;-82
2023/09/28 12:32:56;;;;;;;15.00;3.60;;;20.90;99.90;;;;;;5092960;28;20086;-80
2023/09/28 12:35:23;;;;;;;13.35;3.40;;;20.90;99.90;;;;;;5092888;28;20082;-82
2023/09/28 12:37:49;;;;;;;17.70;4.22;;;20.90;99.90;;;;;;5092978;28;20164;-82
2023/09/28 12:40:17;;;;;;;14.02;3.60;;;20.90;99.90;;;;;;5091689;28;20047;-82
2023/09/28 12:42:43;;;;;;;13.27;3.70;;;21.60;99.90;;;;;;5092415;28;20077;-81